createdAt,value
2018-04-19T00:01:21.924Z,99.90
2018-04-19T00:03:51.704Z,99.90
2018-04-19T00:06:19.943Z,99.90
2018-04-19T00:08:49.703Z,99.90
2018-04-19T00:11:18.737Z,99.90
2018-04-19T00:13:46.966Z,99.90
2018-04-19T00:16:15.203Z,99.90
2018-04-19T00:18:44.218Z,99.90
2018-04-19T00:21:13.222Z,99.90
2018-04-19T00:23:41.479Z,99.90
2018-04-19T00:26:09.719Z,99.90
2018-04-19T00:28:39.498Z,99.90
2018-04-19T00:33:37.196Z,99.90
2018-04-19T00:38:35.318Z,99.90
2018-04-19T00:43:33.455Z,99.90
2018-04-19T00:48:32.642Z,99.90
2018-04-19T00:51:00.911Z,99.90
2018-04-19T00:53:29.908Z,99.90
2018-04-19T00:55:58.140Z,99.90
2018-04-19T00:58:27.542Z,99.90
2018-04-19T01:00:56.535Z,99.90
2018-04-19T01:03:26.269Z,99.90
2018-04-19T01:05:55.367Z,99.90
2018-04-19T01:08:23.591Z,99.90
2018-04-19T01:10:52.588Z,99.90
2018-04-19T01:13:20.858Z,99.90
2018-04-19T01:15:49.082Z,99.90
2018-04-19T01:18:17.347Z,99.90
2018-04-19T01:20:45.578Z,99.90
2018-04-19T01:25:43.283Z,99.90
2018-04-19T01:28:11.515Z,99.90
2018-04-19T01:30:39.738Z,99.90
2018-04-19T01:33:09.510Z,99.90
2018-04-19T01:35:49.442Z,99.90
2018-04-19T01:38:18.183Z,99.90
2018-04-19T01:40:46.408Z,99.90
2018-04-19T01:43:14.647Z,99.90
2018-04-19T01:45:42.951Z,99.90
2018-04-19T01:48:11.184Z,99.90
2018-04-19T01:50:39.410Z,99.90
2018-04-19T01:53:07.695Z,99.90
2018-04-19T01:55:36.682Z,99.90
2018-04-19T01:58:06.050Z,99.90
2018-04-19T02:00:35.081Z,99.90
2018-04-19T02:03:03.307Z,99.90
2018-04-19T02:05:31.587Z,99.90
2018-04-19T02:08:00.584Z,99.90
2018-04-19T02:10:29.207Z,99.90
2018-04-19T02:12:57.439Z,99.90
2018-04-19T02:17:55.559Z,99.90
2018-04-19T02:20:23.796Z,99.90
2018-04-19T02:22:52.063Z,99.90
2018-04-19T02:25:20.292Z,99.90
2018-04-19T02:27:48.515Z,99.90
2018-04-19T02:30:18.285Z,99.90
2018-04-19T02:32:46.511Z,99.90
2018-04-19T02:35:14.737Z,99.90
2018-04-19T02:37:43.022Z,99.90
2018-04-19T02:40:11.247Z,99.90
2018-04-19T02:42:40.980Z,99.90
2018-04-19T02:47:39.092Z,99.90
2018-04-19T02:50:07.324Z,99.90
2018-04-19T02:55:05.437Z,99.90
2018-04-19T02:57:33.660Z,99.90
2018-04-19T03:00:01.936Z,99.90
2018-04-19T03:02:30.163Z,99.90
2018-04-19T03:04:59.896Z,99.90
2018-04-19T03:07:28.164Z,99.90
2018-04-19T03:09:56.400Z,99.90
2018-04-19T03:12:24.621Z,99.90
2018-04-19T03:14:52.912Z,99.90
2018-04-19T03:17:21.135Z,99.90
2018-04-19T03:19:49.358Z,99.90
2018-04-19T03:22:17.627Z,99.90
2018-04-19T03:24:46.623Z,99.90
2018-04-19T03:27:14.854Z,99.90
2018-04-19T03:29:43.116Z,99.90
2018-04-19T03:32:11.346Z,99.90
2018-04-19T03:37:10.205Z,99.90
2018-04-19T03:42:08.166Z,99.90
2018-04-19T03:44:37.941Z,99.90
2018-04-19T03:47:06.178Z,99.90
2018-04-19T03:49:34.799Z,99.90
2018-04-19T03:52:03.287Z,99.90
2018-04-19T03:54:31.909Z,99.90
2018-04-19T03:57:00.133Z,99.90
2018-04-19T03:59:29.247Z,99.90
2018-04-19T04:01:57.475Z,99.90
2018-04-19T04:04:26.842Z,99.90
2018-04-19T04:06:56.620Z,99.90
2018-04-19T04:09:24.858Z,99.90
2018-04-19T04:11:53.079Z,99.90
2018-04-19T04:17:02.576Z,99.90
2018-04-19T04:22:41.982Z,99.90
2018-04-19T04:25:10.312Z,99.90
2018-04-19T04:27:39.312Z,99.90
2018-04-19T04:30:07.535Z,99.90
2018-04-19T04:32:36.246Z,99.90
2018-04-19T04:35:05.985Z,99.90
2018-04-19T04:37:34.979Z,99.90
2018-04-19T04:40:04.010Z,99.90
2018-04-19T04:42:33.007Z,99.90
2018-04-19T04:45:01.244Z,99.90
2018-04-19T04:49:58.975Z,99.90
2018-04-19T04:52:27.212Z,99.90
2018-04-19T04:54:55.494Z,99.90
2018-04-19T04:57:23.728Z,99.90
2018-04-19T04:59:53.095Z,99.90
2018-04-19T05:02:22.140Z,99.90
2018-04-19T05:04:50.367Z,99.90
2018-04-19T05:07:19.363Z,99.90
2018-04-19T05:09:47.640Z,99.90
2018-04-19T05:12:15.872Z,99.90
2018-04-19T05:14:44.103Z,99.90
2018-04-19T05:17:12.383Z,99.90
2018-04-19T05:19:40.606Z,99.90
2018-04-19T05:22:09.968Z,99.90
2018-04-19T05:24:38.995Z,99.90
2018-04-19T05:29:36.730Z,99.90
2018-04-19T05:32:04.990Z,99.90
2018-04-19T05:34:33.219Z,99.90
2018-04-19T05:39:31.351Z,99.90
2018-04-19T05:41:59.975Z,99.90
2018-04-19T05:44:29.000Z,99.90
2018-04-19T05:46:57.230Z,99.90
2018-04-19T05:49:25.503Z,99.90
2018-04-19T05:51:53.735Z,99.90
2018-04-19T05:54:21.975Z,99.90
2018-04-19T05:56:50.221Z,99.90
2018-04-19T05:59:18.446Z,99.90
2018-04-19T06:01:46.712Z,99.90
2018-04-19T06:04:14.978Z,99.90
2018-04-19T06:06:43.980Z,99.90
2018-04-19T06:09:12.239Z,99.90
2018-04-19T06:11:41.266Z,99.90
2018-04-19T06:14:10.255Z,99.90
2018-04-19T06:16:38.514Z,99.90
2018-04-19T06:19:06.784Z,99.90
2018-04-19T06:21:35.782Z,99.90
2018-04-19T06:24:04.848Z,99.90
2018-04-19T06:26:33.078Z,99.90
2018-04-19T06:31:31.211Z,99.90
2018-04-19T06:33:59.431Z,99.90
2018-04-19T06:36:28.431Z,99.90
2018-04-19T06:38:58.218Z,99.90
2018-04-19T06:41:26.460Z,99.90
2018-04-19T06:43:54.694Z,99.90
2018-04-19T06:46:23.728Z,99.90
2018-04-19T06:48:51.956Z,99.90
2018-04-19T06:51:20.210Z,99.90
2018-04-19T06:53:48.881Z,99.90
2018-04-19T06:56:17.107Z,99.90
2018-04-19T06:58:46.851Z,99.90
2018-04-19T07:01:16.247Z,99.90
2018-04-19T07:03:45.611Z,99.90
2018-04-19T07:06:14.606Z,99.90
2018-04-19T07:08:42.880Z,99.90
2018-04-19T07:11:11.108Z,99.90
2018-04-19T07:13:39.360Z,99.90
2018-04-19T07:16:07.624Z,99.90
2018-04-19T07:18:37.035Z,99.10
2018-04-19T07:21:06.057Z,99.40
2018-04-19T07:23:34.284Z,96.40
2018-04-19T07:26:03.695Z,96.30
2018-04-19T07:28:31.927Z,96.00
2018-04-19T07:31:00.166Z,94.60
2018-04-19T07:33:28.439Z,94.30
2018-04-19T07:35:56.676Z,92.40
2018-04-19T07:38:24.900Z,91.10
2018-04-19T07:40:53.179Z,90.60
2018-04-19T07:43:22.548Z,89.50
2018-04-19T07:48:20.657Z,87.20
2018-04-19T07:50:48.879Z,86.30
2018-04-19T07:53:18.672Z,83.20
2018-04-19T07:55:47.238Z,83.20
2018-04-19T07:58:15.466Z,81.00
2018-04-19T08:00:43.729Z,83.60
2018-04-19T08:03:13.103Z,81.20
2018-04-19T08:05:41.393Z,81.60
2018-04-19T08:08:09.608Z,78.60
2018-04-19T08:10:37.847Z,76.00
2018-04-19T08:13:06.108Z,78.80
2018-04-19T08:15:34.339Z,77.20
2018-04-19T08:20:32.850Z,73.90
2018-04-19T08:23:01.079Z,73.90
2018-04-19T08:25:30.908Z,73.80
2018-04-19T08:27:59.138Z,74.40
2018-04-19T08:30:27.362Z,71.10
2018-04-19T08:32:55.643Z,70.10
2018-04-19T08:35:24.672Z,70.20
2018-04-19T08:37:52.863Z,65.90
2018-04-19T08:40:21.899Z,68.90
2018-04-19T08:42:50.891Z,65.50
2018-04-19T08:45:19.121Z,65.80
2018-04-19T08:47:47.392Z,65.70
2018-04-19T08:50:15.657Z,65.00
2018-04-19T08:52:43.851Z,66.10
2018-04-19T08:55:12.159Z,66.30
2018-04-19T08:57:40.420Z,64.80
2018-04-19T09:02:38.134Z,62.90
2018-04-19T09:05:07.128Z,59.20
2018-04-19T09:10:05.850Z,57.00
2018-04-19T09:12:34.475Z,55.00
2018-04-19T09:15:02.704Z,51.70
2018-04-19T09:17:30.994Z,48.00
2018-04-19T09:20:00.806Z,46.20
2018-04-19T09:22:29.415Z,43.20
2018-04-19T09:24:57.684Z,44.30
2018-04-19T09:29:55.375Z,42.00
2018-04-19T09:32:23.644Z,36.80
2018-04-19T09:34:51.875Z,36.40
2018-04-19T09:37:20.112Z,33.60
2018-04-19T09:39:49.534Z,32.70
2018-04-19T09:42:18.532Z,31.90
2018-04-19T09:44:46.767Z,32.40
2018-04-19T09:49:44.492Z,34.40
2018-04-19T09:52:14.236Z,31.10
2018-04-19T09:54:43.041Z,30.80
2018-04-19T09:57:12.406Z,31.20
2018-04-19T09:59:40.639Z,31.10
2018-04-19T10:02:08.911Z,30.80
2018-04-19T10:04:37.140Z,31.10
2018-04-19T10:07:05.370Z,31.60
2018-04-19T10:09:34.782Z,31.40
2018-04-19T10:12:03.010Z,30.40
2018-04-19T10:14:31.238Z,33.70
2018-04-19T10:16:59.513Z,34.30
2018-04-19T10:19:29.247Z,31.80
2018-04-19T10:21:57.479Z,32.50
2018-04-19T10:24:25.747Z,34.70
2018-04-19T10:26:54.367Z,32.10
2018-04-19T10:29:22.599Z,33.10
2018-04-19T10:31:51.655Z,37.60
2018-04-19T10:34:21.160Z,35.10
2018-04-19T10:36:50.164Z,34.50
2018-04-19T10:41:48.291Z,32.00
2018-04-19T10:46:46.782Z,35.20
2018-04-19T10:49:15.012Z,33.80
2018-04-19T10:54:13.899Z,35.00
2018-04-19T10:56:43.267Z,36.50
2018-04-19T10:59:11.500Z,35.40
2018-04-19T11:01:41.270Z,39.30
2018-04-19T11:04:09.505Z,38.20
2018-04-19T11:06:37.739Z,36.20
2018-04-19T11:09:07.523Z,37.00
2018-04-19T11:11:35.770Z,36.70
2018-04-19T11:14:04.003Z,34.60
2018-04-19T11:16:32.259Z,38.30
2018-04-19T11:19:00.503Z,36.90
2018-04-19T11:21:28.795Z,38.00
2018-04-19T11:23:58.516Z,38.40
2018-04-19T11:26:26.742Z,37.10
2018-04-19T11:28:55.416Z,36.30
2018-04-19T11:31:24.411Z,37.50
2018-04-19T11:36:22.899Z,38.60
2018-04-19T11:38:51.896Z,40.20
2018-04-19T11:41:21.636Z,37.70
2018-04-19T11:43:49.899Z,37.40
2018-04-19T11:46:18.128Z,41.80
2018-04-19T11:48:47.168Z,40.10
2018-04-19T11:51:16.776Z,41.40
2018-04-19T11:53:46.515Z,39.90
2018-04-19T11:56:14.742Z,39.00
2018-04-19T11:58:43.796Z,39.60
2018-04-19T12:01:12.065Z,37.30
2018-04-19T12:03:40.265Z,38.50
2018-04-19T12:06:10.052Z,34.90
2018-04-19T12:08:38.274Z,38.40
2018-04-19T12:11:06.502Z,38.60
2018-04-19T12:16:04.624Z,37.70
2018-04-19T12:18:32.850Z,40.20
2018-04-19T12:21:01.513Z,40.50
2018-04-19T12:23:29.739Z,40.40
2018-04-19T12:25:57.975Z,37.70
2018-04-19T12:28:27.015Z,36.60
2018-04-19T12:30:55.243Z,38.20
2018-04-19T12:33:23.473Z,40.50
2018-04-19T12:35:52.523Z,39.50
2018-04-19T12:38:21.528Z,41.40
2018-04-19T12:40:49.758Z,38.90
2018-04-19T12:45:48.044Z,38.10
2018-04-19T12:48:16.267Z,40.20
2018-04-19T12:50:46.068Z,39.60
2018-04-19T12:53:14.297Z,38.40
2018-04-19T12:55:43.290Z,40.50
2018-04-19T12:58:12.743Z,39.50
2018-04-19T13:00:40.967Z,41.60
2018-04-19T13:03:09.599Z,40.10
2018-04-19T13:05:41.499Z,39.40
2018-04-19T13:08:09.729Z,40.60
2018-04-19T13:10:39.093Z,38.20
2018-04-19T13:13:08.412Z,35.30
2018-04-19T13:15:37.403Z,35.70
2018-04-19T13:18:05.701Z,37.60
2018-04-19T13:23:03.379Z,35.70
2018-04-19T13:25:32.012Z,37.70
2018-04-19T13:28:00.666Z,39.00
2018-04-19T13:30:28.896Z,37.90
2018-04-19T13:32:57.932Z,40.80
2018-04-19T13:37:56.071Z,35.80
2018-04-19T13:40:25.068Z,34.60
2018-04-19T13:42:53.515Z,39.50
2018-04-19T13:45:23.134Z,37.30
2018-04-19T13:47:52.511Z,36.30
2018-04-19T13:50:20.742Z,34.10
2018-04-19T13:52:49.006Z,34.10
2018-04-19T13:55:17.239Z,35.40
2018-04-19T13:57:45.595Z,35.80
2018-04-19T14:00:13.823Z,34.70
2018-04-19T14:02:42.052Z,36.80
2018-04-19T14:05:10.591Z,36.40
2018-04-19T14:07:39.662Z,34.90
2018-04-19T14:10:08.216Z,34.50
2018-04-19T14:12:37.947Z,35.30
2018-04-19T14:15:06.950Z,38.20
2018-04-19T14:17:36.003Z,36.40
2018-04-19T14:20:04.238Z,35.60
2018-04-19T14:22:32.468Z,39.00
2018-04-19T14:25:00.808Z,36.80
2018-04-19T14:27:29.043Z,36.40
2018-04-19T14:29:57.266Z,35.70
2018-04-19T14:32:25.543Z,37.00
2018-04-19T14:34:53.775Z,37.10
2018-04-19T14:37:22.003Z,39.50
2018-04-19T14:42:19.727Z,36.20
2018-04-19T14:44:47.958Z,35.20
2018-04-19T14:47:16.235Z,36.70
2018-04-19T14:52:13.918Z,38.30
2018-04-19T14:54:42.195Z,35.80
2018-04-19T14:57:10.427Z,36.80
2018-04-19T14:59:38.651Z,38.00
2018-04-19T15:02:08.066Z,37.20
2018-04-19T15:04:36.308Z,35.80
2018-04-19T15:07:06.042Z,35.50
2018-04-19T15:09:35.641Z,36.30
2018-04-19T15:12:04.259Z,37.20
2018-04-19T15:14:33.260Z,37.90
2018-04-19T15:17:01.528Z,39.40
2018-04-19T15:19:29.759Z,36.60
2018-04-19T15:24:28.983Z,36.80
2018-04-19T15:26:57.205Z,35.20
2018-04-19T15:29:25.493Z,34.40
2018-04-19T15:31:53.728Z,35.60
2018-04-19T15:34:21.976Z,35.00
2018-04-19T15:36:50.302Z,36.70
2018-04-19T15:39:18.516Z,35.00
2018-04-19T15:41:46.754Z,35.80
2018-04-19T15:44:15.787Z,33.40
2018-04-19T15:46:44.015Z,34.90
2018-04-19T15:49:12.274Z,34.30
2018-04-19T15:51:40.519Z,33.80
2018-04-19T15:54:08.746Z,34.60
2018-04-19T15:56:37.383Z,35.10
2018-04-19T16:01:35.104Z,36.20
2018-04-19T16:04:03.335Z,34.00
2018-04-19T16:06:31.608Z,35.40
2018-04-19T16:08:59.850Z,35.90
2018-04-19T16:11:28.143Z,36.70
2018-04-19T16:13:57.178Z,36.00
2018-04-19T16:16:25.407Z,34.90
2018-04-19T16:18:54.472Z,35.90
2018-04-19T16:21:22.674Z,36.40
2018-04-19T16:23:51.664Z,35.40
2018-04-19T16:26:19.886Z,36.90
2018-04-19T16:28:48.619Z,36.20
2018-04-19T16:33:46.239Z,35.40
2018-04-19T16:36:14.931Z,36.10
2018-04-19T16:38:44.334Z,36.30
2018-04-19T16:41:12.531Z,35.50
2018-04-19T16:43:40.824Z,36.10
2018-04-19T16:48:38.927Z,38.00
2018-04-19T16:51:07.195Z,37.90
2018-04-19T16:53:35.423Z,40.00
2018-04-19T16:56:03.662Z,38.80
2018-04-19T16:58:31.928Z,39.80
2018-04-19T17:01:00.154Z,41.10
2018-04-19T17:03:28.383Z,41.80
2018-04-19T17:08:27.718Z,42.90
2018-04-19T17:10:55.948Z,43.10
2018-04-19T17:13:24.256Z,43.60
2018-04-19T17:15:52.875Z,44.40
2018-04-19T17:18:21.103Z,45.00
2018-04-19T17:23:19.249Z,44.40
2018-04-19T17:25:48.613Z,43.60
2018-04-19T17:28:17.647Z,44.70
2018-04-19T17:30:46.639Z,45.40
2018-04-19T17:33:14.877Z,46.00
2018-04-19T17:35:43.138Z,47.00
2018-04-19T17:38:12.179Z,45.80
2018-04-19T17:40:41.175Z,45.60
2018-04-19T17:43:09.431Z,45.30
2018-04-19T17:45:37.663Z,45.60
2018-04-19T17:48:06.019Z,45.90
2018-04-19T17:50:35.695Z,45.80
2018-04-19T17:53:03.927Z,47.20
2018-04-19T18:00:32.603Z,46.50
2018-04-19T18:03:00.879Z,47.40
2018-04-19T18:05:30.249Z,48.30
2018-04-19T18:07:58.474Z,46.40
2018-04-19T18:10:26.746Z,46.50
2018-04-19T18:12:54.979Z,46.90
2018-04-19T18:15:24.736Z,46.70
2018-04-19T18:17:53.035Z,46.80
2018-04-19T18:22:51.127Z,46.70
2018-04-19T18:25:19.383Z,47.00
2018-04-19T18:30:17.444Z,47.40
2018-04-19T18:32:45.727Z,47.30
2018-04-19T18:35:15.459Z,48.00
2018-04-19T18:37:44.454Z,48.20
2018-04-19T18:40:14.323Z,49.00
2018-04-19T18:42:42.946Z,47.80
2018-04-19T18:47:40.679Z,48.60
2018-04-19T18:50:08.913Z,48.10
2018-04-19T18:52:37.131Z,48.50
2018-04-19T18:55:05.435Z,50.50
2018-04-19T18:57:34.799Z,51.50
2018-04-19T19:00:04.542Z,50.10
2018-04-19T19:02:32.860Z,49.10
2018-04-19T19:05:01.103Z,49.20
2018-04-19T19:07:29.350Z,48.80
2018-04-19T19:09:57.640Z,52.40
2018-04-19T19:12:27.384Z,55.10
2018-04-19T19:17:37.635Z,55.00
2018-04-19T19:22:37.637Z,57.90
2018-04-19T19:25:06.658Z,59.50
2018-04-19T19:27:36.090Z,58.30
2018-04-19T19:30:06.000Z,58.20
2018-04-19T19:32:34.238Z,60.50
2018-04-19T19:35:02.515Z,60.30
2018-04-19T19:37:30.758Z,61.80
2018-04-19T19:39:59.000Z,61.90
2018-04-19T19:42:27.485Z,62.70
2018-04-19T19:44:56.860Z,63.50
2018-04-19T19:47:25.106Z,63.10
2018-04-19T19:49:54.903Z,62.00
2018-04-19T19:52:23.151Z,63.30
2018-04-19T19:54:51.395Z,61.90
2018-04-19T19:57:19.678Z,62.90
2018-04-19T19:59:47.907Z,65.50
2018-04-19T20:02:16.143Z,65.10
2018-04-19T20:04:45.575Z,65.00
2018-04-19T20:07:14.590Z,68.10
2018-04-19T20:09:43.959Z,68.90
2018-04-19T20:14:42.103Z,69.70
2018-04-19T20:17:10.343Z,70.30
2018-04-19T20:19:38.649Z,69.80
2018-04-19T20:22:06.887Z,70.80
2018-04-19T20:24:35.134Z,72.30
2018-04-19T20:27:04.564Z,70.00
2018-04-19T20:29:32.804Z,70.50
2018-04-19T20:32:01.808Z,72.40
2018-04-19T20:34:31.215Z,73.50
2018-04-19T20:36:59.459Z,72.70
2018-04-19T20:41:57.995Z,72.30
2018-04-19T20:44:27.379Z,71.60
2018-04-19T20:46:56.050Z,71.90
2018-04-19T20:49:24.321Z,72.70
2018-04-19T20:51:53.671Z,72.80
2018-04-19T20:54:22.715Z,70.80
2018-04-19T20:56:50.959Z,65.20
2018-04-19T20:59:20.694Z,63.10
2018-04-19T21:01:48.967Z,61.90
2018-04-19T21:04:17.193Z,60.80
2018-04-19T21:06:45.431Z,61.10
2018-04-19T21:09:14.471Z,60.00
2018-04-19T21:11:42.703Z,59.20
2018-04-19T21:14:10.943Z,59.40
2018-04-19T21:16:40.724Z,58.30
2018-04-19T21:19:08.959Z,58.60
2018-04-19T21:21:37.229Z,58.30
2018-04-19T21:24:05.498Z,58.20
2018-04-19T21:26:33.735Z,57.60
2018-04-19T21:29:02.002Z,57.00
2018-04-19T21:33:59.745Z,56.60
2018-04-19T21:36:27.983Z,56.80
2018-04-19T21:38:56.211Z,56.50
2018-04-19T21:41:24.895Z,56.80
2018-04-19T21:43:53.131Z,56.40
2018-04-19T21:46:22.131Z,56.70
2018-04-19T21:48:50.417Z,55.90
2018-04-19T21:51:18.658Z,55.50
2018-04-19T21:53:48.394Z,55.80
2018-04-19T21:56:16.689Z,55.20
2018-04-19T22:01:15.518Z,55.60
2018-04-19T22:03:43.798Z,55.30
2018-04-19T22:06:12.039Z,55.40
2018-04-19T22:08:41.415Z,55.20
2018-04-19T22:11:09.703Z,55.40
2018-04-19T22:13:37.934Z,55.20
2018-04-19T22:16:06.170Z,55.80
2018-04-19T22:18:35.580Z,56.30
2018-04-19T22:21:03.819Z,56.90
2018-04-19T22:23:32.967Z,57.70
2018-04-19T22:26:02.023Z,57.10
2018-04-19T22:28:30.268Z,57.00
2018-04-19T22:30:58.891Z,57.30
2018-04-19T22:33:27.179Z,57.00
2018-04-19T22:40:54.791Z,56.60
2018-04-19T22:43:23.035Z,55.60
2018-04-19T22:48:21.975Z,55.60
2018-04-19T22:50:51.728Z,56.20
2018-04-19T22:53:19.972Z,55.30
2018-04-19T22:55:48.255Z,55.50
2018-04-19T23:00:46.015Z,55.00
2018-04-19T23:03:14.254Z,54.70
2018-04-19T23:05:42.491Z,55.40
2018-04-19T23:08:10.770Z,54.70
2018-04-19T23:10:40.142Z,55.40
2018-04-19T23:13:08.399Z,55.40
2018-04-19T23:15:38.191Z,55.50
2018-04-19T23:18:06.428Z,55.50
2018-04-19T23:20:34.663Z,55.70
2018-04-19T23:23:03.171Z,55.70
2018-04-19T23:25:31.431Z,56.00
2018-04-19T23:27:59.726Z,55.50
2018-04-19T23:30:28.709Z,54.50
2018-04-19T23:32:56.942Z,54.80
2018-04-19T23:35:25.211Z,54.60
2018-04-19T23:37:53.487Z,54.60
2018-04-19T23:40:21.767Z,55.30
2018-04-19T23:42:51.511Z,55.70
2018-04-19T23:47:49.667Z,56.80
2018-04-19T23:50:17.891Z,56.60
2018-04-19T23:52:46.163Z,56.40
2018-04-19T23:55:14.408Z,56.70
2018-04-19T23:57:42.636Z,57.00
